Bargoed, United Kingdom
Current Conditions -  °F | °C
As of 6:50 AM on Thursday 23 Oct 2014 (Local Time) from EGFF Reporting Station
Drizzle Drizzle  
Wind Chill: 54°   Ceiling: 200
Heat Index: 54°   Visibility: 1.9mi
Dew Point: 54°   Wind: 9mph
Humidity: 100%   Direction: 220°SW
Pressure: 30.12"   Gusts: NA
Location:  51.68°N, 3.23°W
Report Text: EGFF 230550Z 22008KT 3100 DZ BKN002 12/12 Q1020 RERA
Loading
Personal Weather Stations






























Interactive Weather Map
Tropical Storm Tracking
New forecast layout! Learn more

10-Day Weather Forecast

Advertisements
Track Severe Weather on mobile